Terminal Aerodrome Forecast
Issued by NWS Charleston, WV

Current Version | Previous Version | Text Only | Print | Product List | Glossary Off
Versions: 1 2 3 4 5 6 7 8 9 10 11 12 13 14 15 16 17 18 19 20 21 22 23 24 25 26

000
FTUS41 KRLX 011200 AAA
TAFBKW
TAF AMD
KBKW 011217Z 0112/0212 14008KT P6SM -FZRASN OVC025
     FM011400 17006KT 4SM -RA BR OVC025
     FM011800 19005KT 5SM -RA BR OVC018
     FM020200 24007KT 4SM -RA BR OVC015
     FM020500 27007KT 3SM -RA BR OVC010=

USA.gov is the U.S. government's official web portal to all federal, state and local government web resources and services.